Calchaqui, Argentina
Current Conditions -  °F | °C
As of 5:00 PM on Friday 19 Dec 2014 (Local Time) from SUSO Reporting Station
Few Clouds Few Clouds  
Wind Chill: 90°   Ceiling: Unl
Heat Index: 90°   Visibility: 6mi
Dew Point: 59°   Wind: 13mph
Humidity: 36%   Direction: 20°NNE
Pressure: 29.62"   Gusts: NA
Location:  29.9°S, 60.3°W
Report Text: SUSO 192000Z 02011KT 9999 FEW033 32/15 Q1003
Loading
Personal Weather Stations






























Interactive Weather Map New forecast layout! Learn more

10-Day Weather Forecast

Advertisements
Track Severe Weather on mobile